Time;durP1;ratioP1;P1;durP2;ratioP2;P2;SDS_P1;SDS_P2;PMS_P1;PMS_P2;Temp;Humidity;BMP_temperature;BMP_pressure;BME280_temperature;BME280_humidity;BME280_pressure;Samples;Min_cycle;Max_cycle;Signal;HPM_P1;HPM_P2
2023/10/08 00:01:16;;;;;;;2.88;1.85;;;21.20;70.30;;;;;;5012388;28;20037;-76
2023/10/08 00:03:48;;;;;;;4.88;1.95;;;21.20;70.30;;;;;;5038793;28;20033;-77
2023/10/08 00:06:15;;;;;;;4.45;2.10;;;21.20;70.30;;;;;;5041064;28;20034;-76
2023/10/08 00:08:41;;;;;;;3.63;2.00;;;21.20;70.30;;;;;;5031727;28;20033;-76
2023/10/08 00:11:10;;;;;;;3.90;2.00;;;21.20;70.40;;;;;;5011804;28;20022;-78
2023/10/08 00:13:39;;;;;;;3.50;2.08;;;21.20;70.30;;;;;;5032356;28;20021;-76
2023/10/08 00:16:16;;;;;;;3.90;2.00;;;21.20;70.40;;;;;;5027368;28;20025;-77
2023/10/08 00:18:50;;;;;;;4.18;2.08;;;21.20;70.40;;;;;;5031773;28;20194;-76
2023/10/08 00:21:17;;;;;;;4.32;2.17;;;21.20;70.30;;;;;;5000184;28;20092;-76
2023/10/08 00:23:52;;;;;;;3.40;2.10;;;21.10;70.30;;;;;;5015883;28;20121;-77
2023/10/08 00:26:27;;;;;;;4.22;2.13;;;21.20;70.40;;;;;;5052105;28;20060;-77
2023/10/08 00:28:59;;;;;;;4.20;2.13;;;21.10;70.40;;;;;;5031268;28;20025;-76
2023/10/08 00:31:31;;;;;;;4.35;2.05;;;21.10;70.40;;;;;;5046965;28;20029;-76
2023/10/08 00:33:57;;;;;;;3.55;1.92;;;21.10;70.40;;;;;;4999183;28;20037;-77
2023/10/08 00:36:24;;;;;;;2.92;1.60;;;21.10;70.40;;;;;;5036366;28;20191;-77
2023/10/08 00:38:52;;;;;;;4.55;2.08;;;21.10;70.40;;;;;;5015817;28;20026;-77
2023/10/08 00:41:24;;;;;;;4.28;2.20;;;21.10;70.50;;;;;;5032873;28;20508;-77
2023/10/08 00:43:50;;;;;;;4.50;2.22;;;21.10;70.40;;;;;;5032033;28;20029;-76
2023/10/08 00:48:55;;;;;;;3.45;2.08;;;21.10;70.50;;;;;;5030432;28;20394;-76
2023/10/08 00:51:31;;;;;;;4.25;1.80;;;21.10;70.50;;;;;;5016328;28;20042;-77
2023/10/08 00:54:10;;;;;;;2.75;1.70;;;21.10;70.50;;;;;;5030395;28;20132;-76
2023/10/08 00:59:15;;;;;;;4.13;2.00;;;21.10;70.50;;;;;;5039233;28;20119;-77
2023/10/08 01:01:51;;;;;;;2.47;1.70;;;21.10;71.20;;;;;;5014189;28;20402;-76
2023/10/08 01:04:34;;;;;;;4.53;1.80;;;21.00;70.60;;;;;;5030131;28;20025;-77
2023/10/08 01:07:10;;;;;;;3.88;2.25;;;21.00;70.60;;;;;;5030379;28;20108;-77
2023/10/08 01:09:37;;;;;;;3.40;1.80;;;21.00;70.50;;;;;;5032029;28;20038;-77
2023/10/08 01:14:53;;;;;;;4.38;2.13;;;21.00;70.60;;;;;;5041044;28;20037;-76
2023/10/08 01:17:24;;;;;;;3.63;1.92;;;21.00;70.60;;;;;;5031898;28;21841;-76
2023/10/08 01:19:55;;;;;;;3.42;1.95;;;21.00;70.60;;;;;;5049235;28;20029;-77
2023/10/08 01:22:22;;;;;;;4.40;2.17;;;21.00;70.60;;;;;;5030373;28;20037;-77
2023/10/08 01:24:51;;;;;;;4.22;2.08;;;20.90;70.60;;;;;;5016983;28;20501;-77
2023/10/08 01:27:22;;;;;;;3.17;2.00;;;20.90;70.60;;;;;;5035928;28;20068;-76
2023/10/08 01:29:51;;;;;;;3.85;2.00;;;21.00;70.60;;;;;;5018122;28;20030;-77
2023/10/08 01:32:19;;;;;;;3.35;1.83;;;21.00;70.60;;;;;;5030751;28;20548;-76
2023/10/08 01:34:46;;;;;;;3.72;2.00;;;21.00;70.70;;;;;;5031706;28;20042;-76
2023/10/08 01:37:19;;;;;;;4.10;2.20;;;20.90;70.60;;;;;;5031743;28;20117;-77
2023/10/08 01:39:45;;;;;;;3.65;2.00;;;20.90;70.70;;;;;;5012809;28;20060;-78
2023/10/08 01:42:20;;;;;;;2.97;1.65;;;20.90;70.70;;;;;;5013208;28;20467;-77
2023/10/08 01:44:48;;;;;;;4.65;2.10;;;20.90;70.70;;;;;;5037522;28;20034;-76
2023/10/08 01:47:16;;;;;;;3.00;2.05;;;20.90;70.70;;;;;;5013346;28;20017;-76
2023/10/08 01:49:44;;;;;;;4.20;2.28;;;20.90;70.70;;;;;;5031154;28;20029;-76
2023/10/08 01:52:23;;;;;;;4.45;2.20;;;20.90;70.70;;;;;;5031082;28;20112;-78
2023/10/08 01:54:49;;;;;;;4.40;2.30;;;20.90;70.80;;;;;;5026820;28;20112;-77
2023/10/08 01:57:16;;;;;;;6.10;3.08;;;20.90;70.80;;;;;;5014136;28;20030;-77
2023/10/08 01:59:44;;;;;;;4.80;2.60;;;20.90;70.80;;;;;;5020476;28;20426;-77
2023/10/08 02:02:10;;;;;;;6.80;2.88;;;20.90;70.80;;;;;;5013775;28;20112;-76
2023/10/08 02:04:36;;;;;;;6.47;3.08;;;20.90;70.90;;;;;;5031377;28;20080;-76
2023/10/08 02:07:08;;;;;;;5.95;3.15;;;20.90;70.90;;;;;;5014490;28;20112;-77
2023/10/08 02:09:37;;;;;;;6.82;3.17;;;20.90;70.90;;;;;;5031247;28;20025;-77
2023/10/08 02:12:03;;;;;;;5.43;2.90;;;20.80;70.80;;;;;;5029905;28;20037;-76
2023/10/08 02:14:31;;;;;;;6.75;3.08;;;20.80;70.90;;;;;;5031414;28;20038;-77
2023/10/08 02:17:01;;;;;;;6.45;2.75;;;20.80;70.90;;;;;;5028175;28;20025;-77
2023/10/08 02:19:28;;;;;;;6.38;3.10;;;20.80;70.90;;;;;;5043801;28;20037;-77
2023/10/08 02:21:55;;;;;;;6.82;3.15;;;20.80;70.90;;;;;;5046477;28;20044;-76
2023/10/08 02:24:24;;;;;;;5.80;2.92;;;20.80;70.90;;;;;;5012751;28;20036;-76
2023/10/08 02:26:51;;;;;;;5.35;3.00;;;20.80;70.90;;;;;;5032410;28;20033;-76
2023/10/08 02:29:17;;;;;;;5.93;2.92;;;20.80;70.90;;;;;;5035355;28;20495;-76
2023/10/08 02:31:43;;;;;;;5.88;2.92;;;20.70;70.90;;;;;;5016060;28;20136;-77
2023/10/08 02:34:09;;;;;;;6.65;3.10;;;20.80;71.00;;;;;;4996591;28;20026;-77
2023/10/08 02:36:42;;;;;;;6.47;2.88;;;20.80;70.90;;;;;;5030259;28;20030;-77
2023/10/08 02:39:21;;;;;;;5.32;2.70;;;20.80;71.00;;;;;;5011574;28;20908;-76
2023/10/08 02:41:47;;;;;;;4.85;2.58;;;20.70;70.90;;;;;;5015763;28;20073;-77
2023/10/08 02:44:14;;;;;;;6.10;3.03;;;20.70;71.00;;;;;;4997348;28;20028;-76
2023/10/08 02:46:41;;;;;;;6.20;2.78;;;20.70;71.00;;;;;;5026369;28;20022;-77
2023/10/08 02:49:11;;;;;;;5.70;2.88;;;20.70;71.00;;;;;;5030970;28;20057;-77
2023/10/08 02:51:41;;;;;;;5.47;2.78;;;20.70;71.00;;;;;;5028340;28;20073;-77
2023/10/08 02:54:17;;;;;;;4.55;2.55;;;20.70;71.00;;;;;;5031829;28;20056;-77
2023/10/08 02:56:51;;;;;;;5.18;2.65;;;20.70;71.00;;;;;;5004738;28;20033;-76
2023/10/08 02:59:22;;;;;;;5.80;2.92;;;20.70;71.10;;;;;;5045393;28;20026;-77
2023/10/08 03:01:57;;;;;;;4.70;2.60;;;20.70;71.00;;;;;;5032632;28;20038;-76
2023/10/08 03:04:23;;;;;;;5.22;2.50;;;20.70;71.00;;;;;;5028611;28;20049;-77
2023/10/08 03:06:49;;;;;;;5.15;3.00;;;20.70;71.00;;;;;;5029443;28;20060;-77
2023/10/08 03:09:23;;;;;;;4.43;2.50;;;20.70;71.00;;;;;;5030296;28;20033;-76
2023/10/08 03:11:50;;;;;;;5.50;3.30;;;20.70;71.10;;;;;;5013610;28;20099;-77
2023/10/08 03:14:23;;;;;;;5.40;3.00;;;20.60;71.00;;;;;;5029778;28;20178;-76
2023/10/08 03:16:50;;;;;;;5.28;2.60;;;20.60;71.00;;;;;;5027800;28;20449;-77
2023/10/08 03:19:19;;;;;;;4.18;2.70;;;20.60;71.00;;;;;;5030667;28;20293;-76
2023/10/08 03:21:56;;;;;;;4.70;2.60;;;20.60;71.00;;;;;;5010348;28;20028;-76
2023/10/08 03:24:29;;;;;;;4.65;2.45;;;20.60;71.00;;;;;;5029706;28;20069;-77
2023/10/08 03:29:41;;;;;;;;;;;20.60;71.00;;;;;;5032157;28;20061;-77
2023/10/08 03:32:26;;;;;;;3.58;2.30;;;20.60;71.00;;;;;;5017415;28;20365;-77
2023/10/08 03:34:54;;;;;;;4.90;2.55;;;20.60;71.00;;;;;;5017354;28;20756;-78
2023/10/08 03:37:41;;;;;;;4.32;2.55;;;20.60;71.00;;;;;;5043202;28;20041;-77
2023/10/08 03:40:24;;;;;;;3.83;2.20;;;20.50;71.00;;;;;;5039738;28;20037;-76
2023/10/08 03:42:49;;;;;;;3.88;2.40;;;20.50;71.00;;;;;;5034451;28;20466;-76
2023/10/08 03:45:22;;;;;;;3.97;2.28;;;20.50;71.00;;;;;;5025000;28;20060;-76
2023/10/08 03:48:05;;;;;;;4.65;2.55;;;20.50;71.10;;;;;;5023208;28;20029;-77
2023/10/08 03:50:42;;;;;;;4.68;2.72;;;20.50;71.10;;;;;;5033853;28;20030;-77
2023/10/08 03:53:16;;;;;;;3.70;2.40;;;20.50;71.10;;;;;;5035908;28;20545;-76
2023/10/08 03:55:42;;;;;;;5.00;2.60;;;20.50;71.10;;;;;;5036414;28;20095;-76
2023/10/08 03:58:19;;;;;;;4.72;2.53;;;20.50;71.10;;;;;;5025587;28;20029;-76
2023/10/08 04:00:46;;;;;;;4.50;2.50;;;20.50;71.20;;;;;;5034065;28;20032;-77
2023/10/08 04:03:12;;;;;;;4.68;2.45;;;20.50;71.10;;;;;;5016995;28;20036;-76
2023/10/08 04:05:51;;;;;;;4.50;2.45;;;20.50;71.20;;;;;;5038940;28;20116;-76
2023/10/08 04:08:19;;;;;;;3.85;2.33;;;20.50;71.20;;;;;;5020677;28;20025;-77
2023/10/08 04:13:14;;;;;;;4.03;2.58;;;20.50;71.20;;;;;;5036835;28;20040;-77
2023/10/08 04:15:40;;;;;;;4.57;2.50;;;20.40;71.10;;;;;;5039002;28;20120;-77
2023/10/08 04:18:11;;;;;;;4.50;2.53;;;20.40;71.10;;;;;;5048269;28;20112;-76
2023/10/08 04:23:05;;;;;;;4.72;2.60;;;20.40;71.20;;;;;;5038430;28;20042;-77
2023/10/08 04:25:32;;;;;;;4.55;2.75;;;20.40;71.20;;;;;;5038383;28;20029;-77
2023/10/08 04:28:01;;;;;;;5.25;2.75;;;20.40;71.20;;;;;;5028369;28;20021;-78
2023/10/08 04:30:33;;;;;;;4.00;2.38;;;20.40;71.20;;;;;;5012552;28;20132;-76
2023/10/08 04:33:06;;;;;;;3.72;2.45;;;20.40;71.20;;;;;;5017595;28;20121;-77
2023/10/08 04:35:48;;;;;;;5.38;2.60;;;20.40;71.20;;;;;;5009129;28;20071;-77
2023/10/08 04:38:21;;;;;;;3.95;2.22;;;20.40;71.20;;;;;;5043044;28;20033;-77
2023/10/08 04:40:48;;;;;;;3.63;2.38;;;20.40;71.20;;;;;;5024425;28;20072;-77
2023/10/08 04:43:25;;;;;;;4.13;2.47;;;20.30;71.20;;;;;;5035821;28;20082;-77
2023/10/08 04:45:56;;;;;;;4.13;2.33;;;20.30;71.20;;;;;;5026199;28;20032;-76
2023/10/08 04:48:29;;;;;;;4.15;2.45;;;20.40;71.30;;;;;;5041616;28;20143;-77
2023/10/08 04:50:58;;;;;;;4.72;2.58;;;20.30;71.20;;;;;;5022931;28;20057;-77
2023/10/08 04:53:40;;;;;;;5.30;2.75;;;20.30;71.30;;;;;;5015421;28;20050;-77
2023/10/08 04:56:17;;;;;;;5.00;2.60;;;20.30;71.30;;;;;;5013320;28;20030;-77
2023/10/08 04:58:48;;;;;;;5.40;2.83;;;20.30;71.20;;;;;;5018087;28;20041;-78
2023/10/08 05:01:17;;;;;;;3.92;2.10;;;20.30;71.20;;;;;;5016079;28;20045;-77
2023/10/08 05:08:59;;;;;;;5.03;2.50;;;20.30;71.30;;;;;;5036720;28;20091;-77
2023/10/08 05:11:36;;;;;;;4.43;2.33;;;20.30;71.30;;;;;;5037466;28;20051;-76
2023/10/08 05:14:06;;;;;;;4.00;2.25;;;20.30;71.30;;;;;;5030531;28;20100;-77
2023/10/08 05:17:00;;;;;;;4.85;2.60;;;20.30;71.30;;;;;;5037423;28;20072;-77
2023/10/08 05:19:48;;;;;;;4.18;2.20;;;20.30;71.30;;;;;;5017613;28;20037;-77
2023/10/08 05:25:07;;;;;;;3.67;2.30;;;20.20;71.20;;;;;;5038438;28;20032;-77
2023/10/08 05:27:56;;;;;;;4.40;2.20;;;20.20;71.20;;;;;;5031641;28;20601;-76
2023/10/08 05:30:41;;;;;;;3.53;2.10;;;20.20;71.30;;;;;;5017249;28;20057;-77
2023/10/08 05:35:54;;;;;;;4.03;2.15;;;20.20;71.30;;;;;;5021910;28;20037;-77
2023/10/08 05:49:26;;;;;;;3.10;1.77;;;20.10;71.40;;;;;;5029834;28;20025;-77
2023/10/08 06:13:04;;;;;;;2.90;1.70;;;20.00;71.40;;;;;;5040920;28;20108;-75
2023/10/08 06:18:14;;;;;;;3.28;1.88;;;20.00;71.50;;;;;;5025222;28;20576;-76
2023/10/08 06:20:43;;;;;;;3.15;1.73;;;19.90;71.50;;;;;;5045717;28;20037;-78
2023/10/08 06:23:18;;;;;;;2.40;1.60;;;19.90;71.40;;;;;;5025885;28;20022;-84
2023/10/08 06:25:45;;;;;;;3.42;1.75;;;19.90;71.50;;;;;;5026310;28;20103;-77
2023/10/08 06:28:25;;;;;;;2.13;1.58;;;19.90;71.40;;;;;;5030652;28;20040;-76
2023/10/08 06:30:56;;;;;;;2.63;1.60;;;19.90;71.50;;;;;;5016423;28;20643;-77
2023/10/08 06:33:25;;;;;;;2.72;1.48;;;19.90;71.40;;;;;;5052777;28;20040;-76
2023/10/08 06:36:33;;;;;;;2.67;1.70;;;19.80;71.40;;;;;;5015851;28;20049;-75
2023/10/08 06:38:42;;;;;;;3.00;1.58;;;19.80;71.40;;;;;;5018667;28;20584;-76
2023/10/08 06:43:42;;;;;;;2.63;1.50;;;19.80;71.40;;;;;;5021712;28;20029;-78
2023/10/08 06:46:12;;;;;;;2.75;1.60;;;19.80;71.40;;;;;;5007110;28;20060;-77
2023/10/08 06:48:42;;;;;;;2.30;1.58;;;19.80;71.40;;;;;;5026114;28;20026;-77
2023/10/08 06:51:12;;;;;;;2.03;1.42;;;19.70;71.30;;;;;;5026285;28;20044;-78
2023/10/08 06:53:46;;;;;;;2.38;1.60;;;19.70;71.30;;;;;;5011351;28;20049;-77
2023/10/08 06:56:14;;;;;;;3.67;1.77;;;19.70;71.40;;;;;;5025023;28;20041;-77
2023/10/08 06:58:53;;;;;;;3.53;1.63;;;19.70;71.30;;;;;;5028944;28;20021;-77
2023/10/08 07:01:24;;;;;;;2.78;1.65;;;19.70;71.30;;;;;;5011396;28;20025;-77
2023/10/08 07:03:51;;;;;;;2.53;1.58;;;19.70;71.30;;;;;;5012925;28;20096;-77
2023/10/08 07:06:31;;;;;;;3.28;1.88;;;19.60;71.30;;;;;;5029635;28;20030;-77
2023/10/08 07:08:59;;;;;;;3.63;1.67;;;19.60;71.30;;;;;;5026719;28;20029;-77
2023/10/08 07:11:28;;;;;;;1.80;1.38;;;19.60;71.30;;;;;;5008042;28;20064;-78
2023/10/08 07:13:55;;;;;;;1.98;1.55;;;19.60;71.30;;;;;;5029605;28;20033;-79
2023/10/08 07:16:21;;;;;;;2.40;1.50;;;19.60;71.30;;;;;;5027873;28;20117;-76
2023/10/08 07:18:51;;;;;;;2.88;1.67;;;19.50;71.20;;;;;;5019968;28;20132;-76
2023/10/08 07:21:18;;;;;;;2.03;1.40;;;19.60;71.30;;;;;;5018466;28;20117;-76
2023/10/08 07:23:56;;;;;;;1.65;1.50;;;19.50;71.20;;;;;;5008639;28;20380;-78
2023/10/08 07:26:39;;;;;;;1.52;1.20;;;19.50;71.20;;;;;;5028658;28;20041;-77
2023/10/08 07:29:09;;;;;;;2.42;1.40;;;19.50;71.30;;;;;;5026259;28;20052;-76
2023/10/08 07:31:37;;;;;;;1.90;1.48;;;19.50;71.20;;;;;;5029764;28;20076;-75
2023/10/08 07:34:16;;;;;;;2.35;1.63;;;19.40;71.20;;;;;;5030000;28;20044;-76
2023/10/08 07:36:50;;;;;;;2.40;1.73;;;19.40;71.30;;;;;;5021133;28;20161;-80
2023/10/08 07:39:35;;;;;;;2.42;1.70;;;19.40;71.30;;;;;;5032146;28;20483;-76
2023/10/08 07:42:05;;;;;;;;;;;19.40;71.30;;;;;;5016157;28;20026;-77
2023/10/08 07:44:31;;;;;;;1.48;1.30;;;19.30;71.20;;;;;;5026698;28;19909;-76
2023/10/08 07:46:57;;;;;;;2.65;1.58;;;19.40;71.30;;;;;;5033325;28;20035;-76
2023/10/08 07:49:29;;;;;;;2.80;1.70;;;19.30;71.30;;;;;;5040208;28;20116;-77
2023/10/08 07:51:58;;;;;;;3.47;2.00;;;19.30;71.40;;;;;;5033949;28;20448;-76
2023/10/08 07:54:27;;;;;;;1.98;1.60;;;19.30;71.40;;;;;;5030702;28;20084;-77
2023/10/08 07:57:09;;;;;;;2.13;1.70;;;19.30;71.50;;;;;;5018063;28;20031;-80
2023/10/08 07:59:39;;;;;;;2.70;1.90;;;19.30;71.50;;;;;;4997254;28;20072;-76
2023/10/08 08:02:11;;;;;;;2.38;1.90;;;19.20;71.50;;;;;;5035402;28;20110;-77
2023/10/08 08:04:43;;;;;;;1.95;1.60;;;19.20;71.50;;;;;;5020925;28;20049;-77
2023/10/08 08:07:18;;;;;;;2.15;1.65;;;19.20;71.60;;;;;;5040526;28;20040;-77
2023/10/08 08:09:58;;;;;;;2.63;1.80;;;19.20;71.60;;;;;;5020467;28;20037;-77
2023/10/08 08:12:25;;;;;;;2.92;1.92;;;19.20;71.60;;;;;;5022442;28;20510;-76
2023/10/08 08:14:52;;;;;;;2.33;1.63;;;19.20;71.60;;;;;;5037927;28;20088;-79
2023/10/08 08:17:18;;;;;;;2.58;1.88;;;19.20;71.70;;;;;;5017720;28;20052;-78
2023/10/08 08:19:49;;;;;;;2.78;1.98;;;19.20;71.70;;;;;;5042046;28;20119;-77
2023/10/08 08:22:21;;;;;;;2.42;1.95;;;19.20;71.70;;;;;;5044951;28;20025;-77
2023/10/08 08:24:48;;;;;;;2.28;1.77;;;19.20;71.70;;;;;;5033401;28;20160;-76
2023/10/08 08:27:31;;;;;;;3.00;2.22;;;19.20;71.80;;;;;;5034593;28;20049;-77
2023/10/08 08:30:09;;;;;;;1.95;1.70;;;19.20;71.80;;;;;;5021831;28;20374;-76
2023/10/08 08:32:43;;;;;;;3.40;2.28;;;19.20;71.80;;;;;;5000177;28;20045;-78
2023/10/08 08:35:16;;;;;;;2.95;2.08;;;19.10;71.80;;;;;;5011905;28;20029;-77
2023/10/08 08:37:42;;;;;;;2.92;2.08;;;19.10;71.80;;;;;;5038218;28;20064;-77
2023/10/08 08:40:09;;;;;;;3.15;2.00;;;19.10;71.90;;;;;;5023527;28;20243;-77
2023/10/08 08:42:36;;;;;;;2.72;2.05;;;19.10;71.90;;;;;;5034823;28;20034;-79
2023/10/08 08:45:09;;;;;;;3.35;2.20;;;19.10;71.90;;;;;;5037003;28;20024;-80
2023/10/08 08:47:40;;;;;;;3.28;2.17;;;19.10;71.90;;;;;;5035980;28;20041;-76
2023/10/08 08:50:10;;;;;;;2.53;1.85;;;19.10;71.90;;;;;;5031144;28;20037;-77
2023/10/08 08:52:37;;;;;;;3.47;2.53;;;19.10;71.80;;;;;;5029475;28;20049;-77
2023/10/08 08:55:14;;;;;;;3.20;2.20;;;19.10;71.90;;;;;;5038642;28;20079;-77
2023/10/08 08:57:43;;;;;;;3.58;2.20;;;19.10;72.10;;;;;;5033053;28;20037;-76
2023/10/08 09:00:12;;;;;;;2.55;1.90;;;19.10;71.90;;;;;;5037968;28;20029;-76
2023/10/08 09:02:38;;;;;;;3.20;2.20;;;19.10;71.90;;;;;;5038825;28;20045;-76
2023/10/08 09:05:24;;;;;;;3.40;2.28;;;19.10;71.90;;;;;;5040272;28;20037;-76
2023/10/08 09:07:58;;;;;;;2.90;1.95;;;19.10;71.90;;;;;;5016720;28;20308;-78
2023/10/08 09:10:29;;;;;;;1.88;1.65;;;19.00;72.50;;;;;;5034349;28;20030;-76
2023/10/08 09:12:59;;;;;;;2.35;1.83;;;19.00;71.90;;;;;;5032031;28;20104;-78
2023/10/08 09:15:28;;;;;;;3.50;2.38;;;19.00;71.90;;;;;;5039715;28;20025;-76
2023/10/08 09:18:00;;;;;;;2.55;2.00;;;19.00;71.90;;;;;;5012882;28;20029;-78
2023/10/08 09:20:27;;;;;;;2.92;1.90;;;19.00;72.00;;;;;;5012846;28;20056;-78
2023/10/08 09:23:07;;;;;;;3.17;1.95;;;19.00;72.00;;;;;;5030852;28;20033;-78
2023/10/08 09:25:33;;;;;;;2.92;1.85;;;19.00;72.10;;;;;;5032129;28;20025;-78
2023/10/08 09:27:59;;;;;;;2.17;1.55;;;19.00;72.00;;;;;;5010757;28;20049;-77
2023/10/08 09:30:25;;;;;;;2.42;1.85;;;19.00;72.00;;;;;;5039392;28;20116;-78
2023/10/08 09:32:51;;;;;;;2.38;1.60;;;19.00;72.00;;;;;;4989061;28;20132;-80
2023/10/08 09:35:18;;;;;;;2.83;1.58;;;19.00;72.10;;;;;;5014257;28;20029;-79
2023/10/08 09:37:44;;;;;;;3.33;2.00;;;18.90;72.00;;;;;;5024538;28;20037;-78
2023/10/08 09:40:11;;;;;;;2.42;1.55;;;19.00;72.10;;;;;;5027493;28;20112;-78
2023/10/08 09:42:42;;;;;;;2.45;1.55;;;19.00;72.10;;;;;;5014099;28;20048;-77
2023/10/08 09:45:08;;;;;;;2.38;1.65;;;19.00;72.10;;;;;;5002144;28;20029;-78
2023/10/08 09:47:45;;;;;;;2.25;1.77;;;19.00;72.10;;;;;;5023400;28;20033;-78
2023/10/08 09:50:12;;;;;;;2.47;1.80;;;19.00;72.20;;;;;;5025933;28;20053;-78
2023/10/08 09:53:07;;;;;;;2.25;1.50;;;19.00;72.10;;;;;;5021396;28;20119;-78
2023/10/08 09:55:33;;;;;;;1.70;1.40;;;19.00;72.10;;;;;;5032547;28;20039;-77
2023/10/08 09:57:59;;;;;;;1.50;1.30;;;19.00;72.00;;;;;;5034743;28;20033;-80
2023/10/08 10:00:31;;;;;;;1.70;1.27;;;19.00;72.00;;;;;;5008656;28;20463;-85
2023/10/08 10:03:01;;;;;;;2.10;1.33;;;19.00;72.00;;;;;;5015556;28;20528;-78
2023/10/08 10:05:32;;;;;;;1.50;1.27;;;19.00;72.00;;;;;;5027107;28;20433;-75
2023/10/08 10:07:58;;;;;;;1.73;1.33;;;19.00;72.00;;;;;;5032429;28;20030;-77
2023/10/08 10:10:27;;;;;;;2.25;1.50;;;19.00;71.90;;;;;;5039241;28;20021;-74
2023/10/08 10:12:56;;;;;;;2.25;1.40;;;19.00;71.90;;;;;;5031748;28;20026;-77
2023/10/08 10:15:22;;;;;;;1.50;1.30;;;19.00;71.90;;;;;;5018420;28;20029;-79
2023/10/08 10:17:49;;;;;;;2.33;1.50;;;19.10;71.90;;;;;;4997338;28;20022;-78
2023/10/08 10:20:16;;;;;;;1.30;1.20;;;19.10;71.80;;;;;;5019873;28;20510;-78
2023/10/08 10:22:43;;;;;;;1.45;1.20;;;19.10;71.80;;;;;;5035999;28;20103;-78
2023/10/08 10:25:20;;;;;;;1.50;1.20;;;19.10;71.70;;;;;;5023667;28;20037;-77
2023/10/08 10:27:58;;;;;;;1.33;1.17;;;19.10;71.70;;;;;;5035791;28;20037;-77
2023/10/08 10:30:27;;;;;;;1.00;0.90;;;19.10;71.70;;;;;;5038990;28;20029;-77
2023/10/08 10:32:54;;;;;;;1.83;1.23;;;19.20;71.60;;;;;;5038631;28;20436;-77
2023/10/08 10:35:20;;;;;;;3.13;1.17;;;19.10;71.60;;;;;;5022163;28;20041;-77
2023/10/08 10:37:52;;;;;;;1.60;1.30;;;19.20;71.50;;;;;;5038918;28;20398;-77
2023/10/08 10:40:29;;;;;;;1.70;1.13;;;19.20;71.50;;;;;;5039254;28;20038;-77
2023/10/08 10:43:01;;;;;;;1.70;1.23;;;19.20;71.50;;;;;;5039273;28;20084;-77
2023/10/08 10:45:36;;;;;;;0.95;0.90;;;19.20;71.40;;;;;;5034371;28;20044;-77
2023/10/08 10:53:44;;;;;;;;;;;19.20;71.20;;;;;;5035294;28;20076;-78
2023/10/08 10:56:29;;;;;;;1.02;0.93;;;19.20;71.20;;;;;;5031657;28;20267;-77
2023/10/08 10:58:59;;;;;;;1.30;1.15;;;19.30;71.10;;;;;;5016196;28;20034;-77
2023/10/08 11:01:44;;;;;;;1.08;0.98;;;19.30;71.10;;;;;;5025670;28;20030;-78
2023/10/08 11:04:15;;;;;;;1.98;1.10;;;19.30;71.10;;;;;;5024578;28;20057;-77
2023/10/08 11:06:46;;;;;;;2.03;0.95;;;19.30;71.10;;;;;;5035158;28;20116;-78
2023/10/08 11:09:35;;;;;;;1.48;1.10;;;19.30;71.10;;;;;;5020064;28;20017;-77
2023/10/08 11:12:02;;;;;;;1.92;1.20;;;19.40;71.00;;;;;;5025440;28;20045;-79
2023/10/08 11:14:28;;;;;;;1.52;1.15;;;19.40;71.00;;;;;;5021809;28;20032;-77
2023/10/08 11:16:55;;;;;;;1.20;1.10;;;19.40;70.90;;;;;;5044316;28;20037;-78
2023/10/08 11:19:21;;;;;;;1.70;1.10;;;19.40;70.90;;;;;;5033844;28;20485;-77
2023/10/08 11:21:52;;;;;;;1.15;1.02;;;19.50;70.90;;;;;;5038201;28;20037;-77
2023/10/08 11:24:33;;;;;;;2.55;1.23;;;19.40;70.80;;;;;;5038658;28;20025;-77
2023/10/08 11:27:15;;;;;;;1.30;1.13;;;19.50;70.80;;;;;;5049809;28;20049;-77
2023/10/08 11:29:48;;;;;;;2.28;1.45;;;19.50;70.70;;;;;;5039967;28;20064;-77
2023/10/08 11:32:17;;;;;;;1.45;0.98;;;19.60;70.80;;;;;;5036911;28;20112;-77
2023/10/08 11:34:49;;;;;;;1.98;1.20;;;19.60;70.70;;;;;;5042999;28;20440;-78
2023/10/08 11:37:26;;;;;;;1.38;1.20;;;19.60;70.70;;;;;;5036924;28;20546;-78
2023/10/08 11:39:53;;;;;;;1.20;1.10;;;19.60;70.70;;;;;;5025068;28;20491;-78
2023/10/08 11:44:59;;;;;;;1.50;1.10;;;19.60;70.50;;;;;;5055170;28;20063;-77
2023/10/08 11:47:34;;;;;;;1.15;1.00;;;19.60;70.50;;;;;;5025007;28;20033;-78
2023/10/08 11:50:10;;;;;;;1.25;0.95;;;19.70;70.50;;;;;;5017078;28;20033;-77
2023/10/08 11:52:41;;;;;;;2.03;1.02;;;19.70;70.40;;;;;;5035486;28;20060;-77
2023/10/08 11:55:09;;;;;;;1.05;1.00;;;19.70;70.40;;;;;;5026226;28;20037;-78
2023/10/08 11:57:45;;;;;;;1.85;1.20;;;19.80;70.40;;;;;;5024994;28;20087;-77
2023/10/08 12:00:28;;;;;;;1.30;1.15;;;19.70;70.30;;;;;;5028205;28;20030;-78
2023/10/08 12:02:54;;;;;;;2.28;1.27;;;19.80;70.30;;;;;;5037703;28;20373;-77
2023/10/08 12:05:23;;;;;;;1.65;1.17;;;19.80;70.20;;;;;;5039398;28;20032;-78
2023/10/08 12:07:52;;;;;;;2.00;1.20;;;19.80;70.10;;;;;;5043864;28;20029;-78
2023/10/08 12:10:22;;;;;;;1.52;1.00;;;19.80;70.00;;;;;;5044258;28;20032;-77
2023/10/08 12:12:52;;;;;;;1.15;1.05;;;19.90;70.00;;;;;;5028762;28;20053;-78
2023/10/08 12:15:21;;;;;;;1.52;0.80;;;19.90;70.00;;;;;;5018256;28;20044;-77
2023/10/08 12:18:08;;;;;;;1.67;1.35;;;19.90;69.90;;;;;;5033303;28;20367;-78
2023/10/08 12:20:38;;;;;;;1.52;1.05;;;19.90;69.90;;;;;;5035098;28;20087;-78
2023/10/08 12:23:05;;;;;;;1.38;1.00;;;19.90;69.90;;;;;;5034331;28;20069;-77
2023/10/08 12:25:34;;;;;;;1.27;1.13;;;19.90;69.90;;;;;;5044098;28;20030;-78
2023/10/08 12:28:04;;;;;;;1.42;1.02;;;19.90;69.90;;;;;;5032043;28;20108;-77
2023/10/08 12:30:41;;;;;;;1.45;1.20;;;19.90;69.90;;;;;;5041669;28;20037;-78
2023/10/08 12:33:12;;;;;;;1.10;1.00;;;19.90;69.90;;;;;;5021599;28;20039;-77
2023/10/08 12:35:39;;;;;;;1.38;1.00;;;20.00;69.90;;;;;;5035557;28;20034;-77
2023/10/08 12:38:05;;;;;;;2.35;1.30;;;19.90;70.50;;;;;;5042306;28;20502;-78
2023/10/08 12:43:19;;;;;;;1.63;1.15;;;20.00;69.90;;;;;;5034573;28;20084;-78
2023/10/08 12:45:52;;;;;;;3.25;1.23;;;20.00;69.80;;;;;;5044196;28;20037;-78
2023/10/08 12:48:24;;;;;;;1.80;1.27;;;20.00;69.90;;;;;;5019999;28;20029;-77
2023/10/08 12:50:56;;;;;;;1.08;0.90;;;20.00;69.80;;;;;;5035945;28;20041;-77
2023/10/08 12:53:39;;;;;;;1.17;1.08;;;20.00;69.80;;;;;;5013388;28;20068;-77
2023/10/08 12:56:06;;;;;;;2.80;1.30;;;20.00;69.90;;;;;;5025605;28;20135;-77
2023/10/08 12:58:50;;;;;;;1.42;1.10;;;20.00;69.80;;;;;;5023877;28;20064;-77
2023/10/08 13:01:17;;;;;;;1.48;1.10;;;20.00;69.90;;;;;;5031318;28;20043;-78
2023/10/08 13:03:47;;;;;;;0.98;0.98;;;20.00;69.80;;;;;;5035557;28;20417;-77
2023/10/08 13:06:28;;;;;;;1.05;0.95;;;20.00;69.80;;;;;;5037149;28;20065;-78
2023/10/08 13:08:58;;;;;;;1.30;1.20;;;20.10;69.90;;;;;;5016414;28;20241;-78
2023/10/08 13:11:25;;;;;;;1.33;1.00;;;20.10;69.90;;;;;;5027348;28;20122;-78
2023/10/08 13:13:56;;;;;;;1.58;1.13;;;20.10;69.90;;;;;;5043045;28;20037;-78
2023/10/08 13:16:31;;;;;;;1.85;1.10;;;20.10;69.90;;;;;;5024057;28;20029;-78
2023/10/08 13:18:58;;;;;;;1.50;1.27;;;20.10;69.80;;;;;;5032118;28;20033;-78
2023/10/08 13:21:25;;;;;;;1.30;1.20;;;20.10;69.80;;;;;;5021822;28;20417;-78
2023/10/08 13:23:51;;;;;;;2.03;1.30;;;20.10;69.80;;;;;;5044687;28;20445;-77
2023/10/08 13:26:17;;;;;;;2.58;1.38;;;20.10;69.80;;;;;;5023945;28;20402;-78
2023/10/08 13:28:44;;;;;;;1.38;1.00;;;20.10;69.80;;;;;;5046439;28;20044;-78
2023/10/08 13:31:10;;;;;;;1.23;1.13;;;20.10;69.80;;;;;;5045135;28;20477;-78
2023/10/08 13:33:39;;;;;;;1.75;1.02;;;20.10;69.80;;;;;;5044229;28;20112;-77
2023/10/08 13:36:15;;;;;;;1.50;1.10;;;20.10;69.80;;;;;;5021651;28;20029;-78
2023/10/08 13:38:43;;;;;;;1.35;1.25;;;20.10;69.80;;;;;;5027718;28;20120;-77
2023/10/08 13:41:15;;;;;;;2.83;1.20;;;20.20;69.90;;;;;;5005249;28;20454;-78
2023/10/08 13:43:48;;;;;;;1.35;1.25;;;20.20;69.80;;;;;;5041534;28;20041;-77
2023/10/08 13:46:19;;;;;;;1.33;1.17;;;20.10;69.80;;;;;;5021419;28;20025;-77
2023/10/08 13:48:48;;;;;;;1.35;1.25;;;20.20;69.90;;;;;;5044022;28;20040;-78
2023/10/08 13:51:25;;;;;;;1.52;1.30;;;20.20;69.90;;;;;;5024689;28;20040;-78
2023/10/08 13:53:59;;;;;;;1.35;1.25;;;20.20;69.90;;;;;;5023412;28;20041;-77
2023/10/08 13:56:30;;;;;;;1.10;1.00;;;20.20;69.90;;;;;;5038290;28;20087;-77
2023/10/08 14:01:52;;;;;;;1.73;1.10;;;20.20;70.00;;;;;;5036506;28;20048;-78
2023/10/08 14:04:19;;;;;;;2.92;1.60;;;20.20;70.00;;;;;;5006408;28;20026;-78
2023/10/08 14:06:52;;;;;;;1.70;1.40;;;20.20;70.00;;;;;;5021511;28;20057;-78
2023/10/08 14:09:31;;;;;;;2.00;1.20;;;20.20;70.00;;;;;;5015342;28;20478;-77
2023/10/08 14:11:57;;;;;;;1.20;1.10;;;20.20;70.10;;;;;;5040299;28;20469;-78
2023/10/08 14:14:29;;;;;;;1.65;1.30;;;20.20;70.00;;;;;;5023290;28;20120;-78
2023/10/08 14:16:59;;;;;;;1.20;1.10;;;20.20;70.00;;;;;;5038816;28;20207;-78
2023/10/08 14:19:35;;;;;;;1.30;1.20;;;20.20;70.00;;;;;;5047491;28;20041;-78
2023/10/08 14:22:08;;;;;;;1.33;1.23;;;20.20;70.60;;;;;;5022094;28;20072;-79
2023/10/08 14:24:37;;;;;;;1.30;1.20;;;20.20;70.00;;;;;;5035373;28;20474;-78
2023/10/08 14:27:09;;;;;;;1.52;1.42;;;20.20;70.00;;;;;;5027720;28;20355;-78